• Join FlightAware (Why Join?)
  • Login
  • US Flag 
10:24AM EDT


 

Airport Tracker/Info


-or-


 

Live Flight TrackerFlight Track Log ✈ UAL4108 ✈ 25-Apr-2013 ✈ KLIT - KIAH

Flight Track Log - Related Links

Times and Time Zones

All times are in EDT time to prevent confusion due to time zone crossing. See the UAL4108 flight status page for this flight to view local times or setup timezone preferences in your user account.

Time Position Orientation Groundspeed Altitude Reporting Facility
EDT Latitude Longitude Course Direction KTS MPH feet Rate Location/Type
08:13PM 34.7178 -92.2469 179° South 160 184 900  Level Memphis Center
08:15PM 34.6594 -92.2458 179° South 205 236 3,600 2,460 Climbing Memphis Center
08:16PM 34.5947 -92.2392 175° South 260 299 6,200 2,580 Climbing Memphis Center
08:16PM 34.5303 -92.2228 168° South 275 316 8,500 2,340 Climbing Memphis Center
08:17PM 34.4508 -92.2261 182° South 290 334 10,600 1,500 Climbing Memphis Center
08:18PM 34.3569 -92.2392 187° South 307 353 11,600 1,320 Climbing Memphis Center
08:19PM 34.2564 -92.2594 189° South 346 398 13,300 1,680 Climbing Memphis Center
08:20PM 34.1497 -92.2822 190° South 374 430 15,000 1,620 Climbing Memphis Center
08:21PM 34.0533 -92.3025 190° South 386 444 16,600 1,500 Climbing Memphis Center
08:22PM 33.9486 -92.3203 188° South 386 444 18,000 1,620 Climbing Memphis Center
08:24PM 33.8164 -92.3436 188° South 390 449 20,100 1,740 Climbing Fort Worth Center
08:25PM 33.7128 -92.3622 188° South 390 449 21,800 900 Climbing Fort Worth Center
08:26PM 33.6011 -92.3836 189° South 395 455 22,000 60 Climbing Fort Worth Center
08:27PM 33.4808 -92.4053 189° South 413 475 22,000  Level Fort Worth Center
08:28PM 33.3606 -92.4272 189° South 430 495 22,000  Level Fort Worth Center
08:29PM 33.2425 -92.4486 189° South 436 502 22,000  Level Fort Worth Center
08:30PM 33.1183 -92.4706 188° South 441 507 22,000  Level Fort Worth Center
08:31PM 32.9981 -92.4919 188° South 446 513 22,000  Level Fort Worth Center
08:32PM 32.8778 -92.5111 188° South 441 507 22,000  Level Fort Worth Center
08:33PM 32.7556 -92.5350 189° South 446 513 22,000  Level Fort Worth Center
08:34PM 32.6331 -92.5564 188° South 446 513 22,000  Level Fort Worth Center
08:36PM 32.3456 -92.6103 189° South 442 509 22,000  Level Houston Center
08:37PM 32.2239 -92.6333 189° South 443 510 22,000  Level Houston Center
08:38PM 32.1019 -92.6547 188° South 443 510 22,000  Level Houston Center
08:39PM 31.9600 -92.6936 193° South 438 504 22,000  Level Houston Center
08:40PM 31.8669 -92.7806 218° Southwest 422 486 22,000  Level Houston Center
08:41PM 31.7778 -92.8669 219° Southwest 420 483 22,000  Level Houston Center
08:42PM 31.6864 -92.9553 219° Southwest 426 490 22,000  Level Houston Center
08:43PM 31.5953 -93.0442 220° Southwest 428 493 22,000  Level Houston Center
08:44PM 31.5033 -93.1317 219° Southwest 429 494 22,000  Level Houston Center
08:45PM 31.3939 -93.2375 220° Southwest 429 494 22,000  Level Houston Center
08:46PM 31.3006 -93.3244 219° Southwest 430 495 22,000  Level Houston Center
08:47PM 31.2044 -93.4158 219° Southwest 429 494 22,000  Level Houston Center
08:48PM 31.1139 -93.5031 220° Southwest 426 490 22,000  Level Houston Center
08:49PM 31.0219 -93.5900 219° Southwest 427 491 22,000  Level Houston Center
08:51PM 30.9306 -93.6756 219° Southwest 424 488 22,000  Level Houston Center
08:52PM 30.8411 -93.7600 219° Southwest 419 482 22,000  Level Houston Center
08:53PM 30.7347 -93.8625 220° Southwest 418 481 22,000  Level Houston Center
08:54PM 30.6433 -93.9475 219° Southwest 423 487 22,000 -780 Level Houston Center
08:55PM 30.5539 -94.0306 219° Southwest 417 480 20,400 -1,920 Descending Houston Center
08:56PM 30.4667 -94.1122 219° Southwest 408 470 18,100 -2,100 Descending Houston Center
08:57PM 30.3833 -94.1900 219° Southwest 389 448 16,100 -2,400 Descending Houston Center
08:57PM 30.3097 -94.2578 218° Southwest 385 443 14,000 -2,760 Descending Houston Center
08:58PM 30.2842 -94.2825 220° Southwest 385 443 13,300 -1,860 Descending Houston Center
08:58PM 30.2328 -94.3308 219° Southwest 346 398 12,100 -1,260 Descending Houston Center
08:59PM 30.2100 -94.3533 220° Southwest 349 402 12,000 -120 Descending Houston Center
08:59PM 30.1869 -94.4192 248° West 328 377 12,000  Level Houston Center
09:00PM 30.1825 -94.4525 261° West 330 380 12,000 -420 Level Houston Center
09:00PM 30.1681 -94.5281 258° West 326 375 11,600 -900 Descending Houston Center
09:01PM 30.1642 -94.5611 262° West 324 373 11,100 -1,620 Descending Houston Center
09:01PM 30.1525 -94.6267 258° West 297 342 10,000 -1,500 Descending Houston Center
09:02PM 30.1481 -94.6547 260° West 302 348 9,600 -1,680 Descending Houston Center
09:02PM 30.1356 -94.7136 256° West 279 321 8,300 -1,800 Descending Houston Center
09:03PM 30.1336 -94.7411 265° West 279 321 7,800 -1,920 Descending Houston Center
09:03PM 30.1231 -94.7997 258° West 275 316 6,400 -1,680 Descending Houston Center
09:04PM 30.1186 -94.8272 259° West 275 316 6,100 -480 Descending Houston Center
09:04PM 30.1075 -94.8792 256° West 273 314 6,000  Descending Houston Center
09:05PM 30.1044 -94.9139 264° West 276 318 6,100  Climbing Houston Center
09:06PM 30.1050 -94.9856 271° West 286 329 6,000  Descending Houston Center
09:06PM 30.1056 -95.0058 272° West 287 330 6,100  Climbing Houston Center
09:06PM 30.1064 -95.0675 271° West 283 326 6,000 -120 Descending Houston Center
09:07PM 30.1058 -95.1131 269° West 280 322 6,000  Level Houston Center
09:08PM 30.1064 -95.1978 270° West 268 308 6,000  Level Houston Center
09:09PM 30.1069 -95.2719 271° West 237 273 6,100  Climbing Houston Center
09:09PM 30.1072 -95.3042 271° West 237 273 6,000  Descending Houston Center
09:10PM 30.1072 -95.3472 270° West 237 273 6,100 -420 Climbing Houston Center
09:11PM 30.1069 -95.4211 270° West 233 268 5,300 -1,140 Descending Houston Center
09:12PM 30.1061 -95.4758 269° West 231 266 4,300 -1,260 Descending Houston Center
09:12PM 30.1069 -95.4950 273° West 231 266 4,000 -1,200 Descending Houston Center
09:13PM 30.0997 -95.5467 261° West 225 259 3,100 -1,020 Descending Houston Center
09:13PM 30.0867 -95.5542 206° Southwest 236 272 3,000 -120 Descending Houston Center
09:14PM 30.0417 -95.5536 179° South 216 249 3,000 -120 Level Houston Center
09:14PM 30.0203 -95.5397 151° Southeast 212 244 2,900 -420 Descending Houston Center
09:15PM 30.0064 -95.5119 120° Southeast 194 223 2,600 -600 Descending Houston Center